sensor_id;sensor_type;location;lat;lon;timestamp;pressure;altitude;pressure_sealevel;temperature;humidity
8039;BME280;4062;49.844;8.120;2023-11-21T00:00:01;98607.13;;;15.33;58.19
8039;BME280;4062;49.844;8.120;2023-11-21T00:02:03;98599.16;;;15.33;58.16
8039;BME280;4062;49.844;8.120;2023-11-21T00:04:05;98594.69;;;15.34;58.24
8039;BME280;4062;49.844;8.120;2023-11-21T00:06:09;98598.31;;;15.32;58.15
8039;BME280;4062;49.844;8.120;2023-11-21T00:08:10;98600.88;;;15.34;58.30
8039;BME280;4062;49.844;8.120;2023-11-21T00:10:13;98598.31;;;15.32;58.26
8039;BME280;4062;49.844;8.120;2023-11-21T00:12:16;98594.69;;;15.34;58.17
8039;BME280;4062;49.844;8.120;2023-11-21T00:14:17;98593.81;;;15.33;58.24
8039;BME280;4062;49.844;8.120;2023-11-21T00:16:19;98598.31;;;15.32;58.29
8039;BME280;4062;49.844;8.120;2023-11-21T00:18:21;98594.69;;;15.34;58.15
8039;BME280;4062;49.844;8.120;2023-11-21T00:20:22;98600.03;;;15.34;58.29
8039;BME280;4062;49.844;8.120;2023-11-21T00:22:23;98592.97;;;15.32;58.22
8039;BME280;4062;49.844;8.120;2023-11-21T00:24:25;98597.34;;;15.34;58.18
8039;BME280;4062;49.844;8.120;2023-11-21T00:26:26;98594.69;;;15.34;58.31
8039;BME280;4062;49.844;8.120;2023-11-21T00:28:36;98594.69;;;15.34;58.29
8039;BME280;4062;49.844;8.120;2023-11-21T00:30:38;98588.50;;;15.33;58.33
8039;BME280;4062;49.844;8.120;2023-11-21T00:32:39;98592.88;;;15.34;58.30
8039;BME280;4062;49.844;8.120;2023-11-21T00:34:41;98592.03;;;15.34;58.17
8039;BME280;4062;49.844;8.120;2023-11-21T00:36:43;98597.34;;;15.34;58.42
8039;BME280;4062;49.844;8.120;2023-11-21T00:38:44;98591.16;;;15.33;58.33
8039;BME280;4062;49.844;8.120;2023-11-21T00:40:46;98589.38;;;15.34;58.19
8039;BME280;4062;49.844;8.120;2023-11-21T00:42:47;98596.47;;;15.33;58.28
8039;BME280;4062;49.844;8.120;2023-11-21T00:44:50;98592.97;;;15.32;58.36
8039;BME280;4062;49.844;8.120;2023-11-21T00:46:52;98593.81;;;15.33;58.11
8039;BME280;4062;49.844;8.120;2023-11-21T00:48:53;98593.81;;;15.33;58.38
8039;BME280;4062;49.844;8.120;2023-11-21T00:50:55;98597.34;;;15.34;58.17
8039;BME280;4062;49.844;8.120;2023-11-21T00:52:57;98587.56;;;15.34;58.26
8039;BME280;4062;49.844;8.120;2023-11-21T00:55:02;98595.63;;;15.32;58.16
8039;BME280;4062;49.844;8.120;2023-11-21T00:57:04;98593.81;;;15.33;58.25
8039;BME280;4062;49.844;8.120;2023-11-21T00:59:05;98600.97;;;15.32;58.25
8039;BME280;4062;49.844;8.120;2023-11-21T01:01:08;98599.16;;;15.33;58.19
8039;BME280;4062;49.844;8.120;2023-11-21T01:03:10;98596.47;;;15.33;58.33
8039;BME280;4062;49.844;8.120;2023-11-21T01:05:11;98602.69;;;15.34;58.26
8039;BME280;4062;49.844;8.120;2023-11-21T01:07:13;98599.16;;;15.33;58.17
8039;BME280;4062;49.844;8.120;2023-11-21T01:09:14;98607.13;;;15.33;58.21
8039;BME280;4062;49.844;8.120;2023-11-21T01:11:19;98613.31;;;15.34;58.21
8039;BME280;4062;49.844;8.120;2023-11-21T01:13:21;98602.69;;;15.34;58.29
8039;BME280;4062;49.844;8.120;2023-11-21T01:15:23;98603.53;;;15.34;58.28
8039;BME280;4062;49.844;8.120;2023-11-21T01:17:24;98615.13;;;15.33;58.11
8039;BME280;4062;49.844;8.120;2023-11-21T01:19:28;98609.78;;;15.33;58.23
8039;BME280;4062;49.844;8.120;2023-11-21T01:21:31;98616.00;;;15.34;58.23
8039;BME280;4062;49.844;8.120;2023-11-21T01:23:34;98614.28;;;15.32;58.22
8039;BME280;4062;49.844;8.120;2023-11-21T01:25:35;98603.63;;;15.32;58.24
8039;BME280;4062;49.844;8.120;2023-11-21T01:27:38;98609.78;;;15.33;58.25
8039;BME280;4062;49.844;8.120;2023-11-21T01:29:42;98612.44;;;15.33;58.33
8039;BME280;4062;49.844;8.120;2023-11-21T01:31:44;98611.59;;;15.32;58.36
8039;BME280;4062;49.844;8.120;2023-11-21T01:33:46;98617.78;;;15.33;58.28
8039;BME280;4062;49.844;8.120;2023-11-21T01:35:47;98614.28;;;15.32;58.26
8039;BME280;4062;49.844;8.120;2023-11-21T01:37:49;98618.75;;;15.32;58.20
8039;BME280;4062;49.844;8.120;2023-11-21T01:39:50;98622.25;;;15.32;58.35
8039;BME280;4062;49.844;8.120;2023-11-21T01:41:51;98614.28;;;15.32;58.30
8039;BME280;4062;49.844;8.120;2023-11-21T01:43:53;98626.63;;;15.34;58.26
8039;BME280;4062;49.844;8.120;2023-11-21T01:45:55;98626.63;;;15.34;58.31
8039;BME280;4062;49.844;8.120;2023-11-21T01:47:58;98625.75;;;15.33;58.23
8039;BME280;4062;49.844;8.120;2023-11-21T01:50:00;98626.63;;;15.34;58.17
8039;BME280;4062;49.844;8.120;2023-11-21T01:52:03;98625.75;;;15.33;58.22
8039;BME280;4062;49.844;8.120;2023-11-21T01:54:06;98625.75;;;15.33;58.33
8039;BME280;4062;49.844;8.120;2023-11-21T01:56:07;98618.66;;;15.34;58.35
8039;BME280;4062;49.844;8.120;2023-11-21T01:58:10;98624.91;;;15.32;58.30
8039;BME280;4062;49.844;8.120;2023-11-21T02:00:14;98620.44;;;15.33;58.22
8039;BME280;4062;49.844;8.120;2023-11-21T02:02:18;98624.06;;;15.32;58.19
8039;BME280;4062;49.844;8.120;2023-11-21T02:04:20;98627.56;;;15.32;58.18
8039;BME280;4062;49.844;8.120;2023-11-21T02:06:22;98624.91;;;15.32;58.32
8039;BME280;4062;49.844;8.120;2023-11-21T02:08:23;98621.41;;;15.32;58.21
8039;BME280;4062;49.844;8.120;2023-11-21T02:10:25;98631.97;;;15.34;58.28
8039;BME280;4062;49.844;8.120;2023-11-21T02:12:27;98638.22;;;15.32;58.35
8039;BME280;4062;49.844;8.120;2023-11-21T02:14:33;98639.06;;;15.33;58.36
8039;BME280;4062;49.844;8.120;2023-11-21T02:16:35;98634.72;;;15.32;58.23
8039;BME280;4062;49.844;8.120;2023-11-21T02:18:39;98632.91;;;15.32;58.16
8039;BME280;4062;49.844;8.120;2023-11-21T02:20:42;98640.03;;;15.32;58.32
8039;BME280;4062;49.844;8.120;2023-11-21T02:22:48;98634.72;;;15.32;58.33
8039;BME280;4062;49.844;8.120;2023-11-21T02:24:50;98640.88;;;15.32;58.29
8039;BME280;4062;49.844;8.120;2023-11-21T02:26:52;98640.03;;;15.32;58.21
8039;BME280;4062;49.844;8.120;2023-11-21T02:28:54;98647.94;;;15.34;58.21
8039;BME280;4062;49.844;8.120;2023-11-21T02:30:55;98648.88;;;15.32;58.32
8039;BME280;4062;49.844;8.120;2023-11-21T02:32:58;98643.53;;;15.32;58.29
8039;BME280;4062;49.844;8.120;2023-11-21T02:35:00;98648.88;;;15.32;58.30
8039;BME280;4062;49.844;8.120;2023-11-21T02:37:04;98642.69;;;15.32;58.24
8039;BME280;4062;49.844;8.120;2023-11-21T02:39:07;98648.88;;;15.32;58.38
8039;BME280;4062;49.844;8.120;2023-11-21T02:41:09;98651.53;;;15.32;58.26
8039;BME280;4062;49.844;8.120;2023-11-21T02:43:10;98649.72;;;15.33;58.31
8039;BME280;4062;49.844;8.120;2023-11-21T02:45:12;98647.06;;;15.33;58.16
8039;BME280;4062;49.844;8.120;2023-11-21T02:47:15;98648.88;;;15.32;58.40
8039;BME280;4062;49.844;8.120;2023-11-21T02:49:16;98652.38;;;15.33;58.25
8039;BME280;4062;49.844;8.120;2023-11-21T02:51:18;98654.19;;;15.32;58.35
8039;BME280;4062;49.844;8.120;2023-11-21T02:53:19;98648.88;;;15.32;58.15
8039;BME280;4062;49.844;8.120;2023-11-21T02:55:20;98655.03;;;15.33;58.39
8039;BME280;4062;49.844;8.120;2023-11-21T02:57:22;98652.38;;;15.33;58.29
8039;BME280;4062;49.844;8.120;2023-11-21T02:59:23;98650.69;;;15.32;58.34
8039;BME280;4062;49.844;8.120;2023-11-21T03:01:24;98651.53;;;15.32;58.30
8039;BME280;4062;49.844;8.120;2023-11-21T03:03:26;98657.78;;;15.31;58.34
8039;BME280;4062;49.844;8.120;2023-11-21T03:05:27;98659.50;;;15.32;58.23
8039;BME280;4062;49.844;8.120;2023-11-21T03:07:30;98660.34;;;15.33;58.43
8039;BME280;4062;49.844;8.120;2023-11-21T03:09:31;98650.69;;;15.32;58.16
8039;BME280;4062;49.844;8.120;2023-11-21T03:11:32;98661.34;;;15.32;58.21
8039;BME280;4062;49.844;8.120;2023-11-21T03:13:34;98656.84;;;15.32;58.36
8039;BME280;4062;49.844;8.120;2023-11-21T03:15:36;98656.84;;;15.32;58.33
8039;BME280;4062;49.844;8.120;2023-11-21T03:17:39;98664.00;;;15.32;58.38
8039;BME280;4062;49.844;8.120;2023-11-21T03:19:43;98656.00;;;15.32;58.27
8039;BME280;4062;49.844;8.120;2023-11-21T03:21:46;98661.34;;;15.32;58.27
8039;BME280;4062;49.844;8.120;2023-11-21T03:23:48;98662.19;;;15.32;58.39
8039;BME280;4062;49.844;8.120;2023-11-21T03:25:49;98661.34;;;15.32;58.21
8039;BME280;4062;49.844;8.120;2023-11-21T03:27:50;98662.19;;;15.32;58.42
8039;BME280;4062;49.844;8.120;2023-11-21T03:29:52;98659.59;;;15.31;58.38
8039;BME280;4062;49.844;8.120;2023-11-21T03:31:55;98666.66;;;15.32;58.32
8039;BME280;4062;49.844;8.120;2023-11-21T03:33:57;98668.34;;;15.33;58.31
8039;BME280;4062;49.844;8.120;2023-11-21T03:35:58;98666.66;;;15.32;58.24
8039;BME280;4062;49.844;8.120;2023-11-21T03:38:04;98672.81;;;15.32;58.44
8039;BME280;4062;49.844;8.120;2023-11-21T03:40:07;98679.97;;;15.32;58.34
8039;BME280;4062;49.844;8.120;2023-11-21T03:42:10;98679.00;;;15.33;58.22
8039;BME280;4062;49.844;8.120;2023-11-21T03:44:11;98682.63;;;15.32;58.29
8039;BME280;4062;49.844;8.120;2023-11-21T03:46:12;98679.97;;;15.32;58.44
8039;BME280;4062;49.844;8.120;2023-11-21T03:48:14;98681.75;;;15.31;58.33
8039;BME280;4062;49.844;8.120;2023-11-21T03:50:15;98681.75;;;15.31;58.32
8039;BME280;4062;49.844;8.120;2023-11-21T03:52:19;98683.47;;;15.32;58.35
8039;BME280;4062;49.844;8.120;2023-11-21T03:54:20;98682.63;;;15.32;58.37
8039;BME280;4062;49.844;8.120;2023-11-21T03:56:21;98687.94;;;15.32;58.32
8039;BME280;4062;49.844;8.120;2023-11-21T03:58:23;98694.13;;;15.32;58.33
8039;BME280;4062;49.844;8.120;2023-11-21T04:00:25;98694.97;;;15.33;58.35
8039;BME280;4062;49.844;8.120;2023-11-21T04:02:29;98694.13;;;15.32;58.27
8039;BME280;4062;49.844;8.120;2023-11-21T04:04:32;98700.28;;;15.33;58.25
8039;BME280;4062;49.844;8.120;2023-11-21T04:06:37;98693.28;;;15.32;58.21
8039;BME280;4062;49.844;8.120;2023-11-21T04:08:40;98698.59;;;15.32;58.34
8039;BME280;4062;49.844;8.120;2023-11-21T04:10:41;98696.78;;;15.32;58.29
8039;BME280;4062;49.844;8.120;2023-11-21T04:12:43;98702.09;;;15.32;58.36
8039;BME280;4062;49.844;8.120;2023-11-21T04:14:46;98702.09;;;15.32;58.26
8039;BME280;4062;49.844;8.120;2023-11-21T04:16:47;98715.41;;;15.32;58.40
8039;BME280;4062;49.844;8.120;2023-11-21T04:18:49;98716.34;;;15.31;58.25
8039;BME280;4062;49.844;8.120;2023-11-21T04:20:51;98718.06;;;15.32;58.25
8039;BME280;4062;49.844;8.120;2023-11-21T04:22:52;98715.41;;;15.32;58.31
8039;BME280;4062;49.844;8.120;2023-11-21T04:24:53;98719.00;;;15.31;58.40
8039;BME280;4062;49.844;8.120;2023-11-21T04:26:57;98727.88;;;15.32;58.40
8039;BME280;4062;49.844;8.120;2023-11-21T04:28:58;98720.72;;;15.32;58.27
8039;BME280;4062;49.844;8.120;2023-11-21T04:31:01;98721.66;;;15.31;58.25
8039;BME280;4062;49.844;8.120;2023-11-21T04:33:03;98723.38;;;15.32;58.27
8039;BME280;4062;49.844;8.120;2023-11-21T04:35:10;98734.97;;;15.31;58.26
8039;BME280;4062;49.844;8.120;2023-11-21T04:37:12;98730.53;;;15.32;58.46
8039;BME280;4062;49.844;8.120;2023-11-21T04:39:14;98734.97;;;15.31;58.36
8039;BME280;4062;49.844;8.120;2023-11-21T04:41:15;98734.97;;;15.31;58.38
8039;BME280;4062;49.844;8.120;2023-11-21T04:43:17;98734.13;;;15.31;58.40
8039;BME280;4062;49.844;8.120;2023-11-21T04:45:20;98731.47;;;15.31;58.44
8039;BME280;4062;49.844;8.120;2023-11-21T04:47:21;98739.34;;;15.32;58.24
8039;BME280;4062;49.844;8.120;2023-11-21T04:49:22;98738.50;;;15.32;58.33
8039;BME280;4062;49.844;8.120;2023-11-21T04:51:25;98735.84;;;15.32;58.45
8039;BME280;4062;49.844;8.120;2023-11-21T04:53:26;98738.50;;;15.32;58.46
8039;BME280;4062;49.844;8.120;2023-11-21T04:55:27;98750.00;;;15.32;58.29
8039;BME280;4062;49.844;8.120;2023-11-21T04:57:30;98750.94;;;15.31;58.32
8039;BME280;4062;49.844;8.120;2023-11-21T04:59:35;98753.59;;;15.31;58.23
8039;BME280;4062;49.844;8.120;2023-11-21T05:01:37;98756.25;;;15.31;58.40
8039;BME280;4062;49.844;8.120;2023-11-21T05:03:40;98764.25;;;15.31;58.31
8039;BME280;4062;49.844;8.120;2023-11-21T05:05:42;98760.75;;;15.31;58.42
8039;BME280;4062;49.844;8.120;2023-11-21T05:07:43;98763.41;;;15.31;58.34
8039;BME280;4062;49.844;8.120;2023-11-21T05:09:45;98772.25;;;15.31;58.25
8039;BME280;4062;49.844;8.120;2023-11-21T05:11:47;98778.44;;;15.32;58.26
8039;BME280;4062;49.844;8.120;2023-11-21T05:13:49;98777.56;;;15.31;58.25
8039;BME280;4062;49.844;8.120;2023-11-21T05:15:50;98782.03;;;15.31;58.26
8039;BME280;4062;49.844;8.120;2023-11-21T05:17:51;98782.88;;;15.31;58.20
8039;BME280;4062;49.844;8.120;2023-11-21T05:19:53;98783.75;;;15.32;58.19
8039;BME280;4062;49.844;8.120;2023-11-21T05:21:54;98790.03;;;15.31;58.37
8039;BME280;4062;49.844;8.120;2023-11-21T05:23:56;98790.03;;;15.31;58.38
8039;BME280;4062;49.844;8.120;2023-11-21T05:25:58;98791.75;;;15.32;58.25
8039;BME280;4062;49.844;8.120;2023-11-21T05:27:59;98789.94;;;15.32;58.37
8039;BME280;4062;49.844;8.120;2023-11-21T05:30:04;98786.41;;;15.32;58.39
8039;BME280;4062;49.844;8.120;2023-11-21T05:32:12;98787.34;;;15.31;58.50
8039;BME280;4062;49.844;8.120;2023-11-21T05:34:14;98790.88;;;15.31;58.42
8039;BME280;4062;49.844;8.120;2023-11-21T05:36:16;98797.06;;;15.32;58.59
8039;BME280;4062;49.844;8.120;2023-11-21T05:38:17;98810.38;;;15.32;58.20
8039;BME280;4062;49.844;8.120;2023-11-21T05:40:18;98801.50;;;15.31;58.43
8039;BME280;4062;49.844;8.120;2023-11-21T05:42:20;98809.50;;;15.31;58.49
8039;BME280;4062;49.844;8.120;2023-11-21T05:44:22;98812.16;;;15.31;58.33
8039;BME280;4062;49.844;8.120;2023-11-21T05:46:24;98808.66;;;15.31;58.34
8039;BME280;4062;49.844;8.120;2023-11-21T05:48:27;98809.50;;;15.31;58.39
8039;BME280;4062;49.844;8.120;2023-11-21T05:50:28;98821.06;;;15.30;58.22
8039;BME280;4062;49.844;8.120;2023-11-21T05:52:29;98825.47;;;15.31;57.99
8039;BME280;4062;49.844;8.120;2023-11-21T05:54:31;98821.97;;;15.31;58.28
8039;BME280;4062;49.844;8.120;2023-11-21T05:56:33;98829.94;;;15.31;58.33
8039;BME280;4062;49.844;8.120;2023-11-21T05:58:34;98828.13;;;15.31;58.37
8039;BME280;4062;49.844;8.120;2023-11-21T06:00:36;98826.41;;;15.30;58.38
8039;BME280;4062;49.844;8.120;2023-11-21T06:02:38;98829.94;;;15.31;58.27
8039;BME280;4062;49.844;8.120;2023-11-21T06:04:42;98838.78;;;15.31;58.44
8039;BME280;4062;49.844;8.120;2023-11-21T06:06:43;98841.44;;;15.31;58.36
8039;BME280;4062;49.844;8.120;2023-11-21T06:08:45;98842.38;;;15.30;58.35
8039;BME280;4062;49.844;8.120;2023-11-21T06:10:46;98847.69;;;15.30;58.44
8039;BME280;4062;49.844;8.120;2023-11-21T06:12:50;98845.91;;;15.31;58.28
8039;BME280;4062;49.844;8.120;2023-11-21T06:14:53;98842.38;;;15.30;58.26
8039;BME280;4062;49.844;8.120;2023-11-21T06:16:54;98840.59;;;15.31;58.41
8039;BME280;4062;49.844;8.120;2023-11-21T06:18:57;98851.22;;;15.31;58.31
8039;BME280;4062;49.844;8.120;2023-11-21T06:20:58;98847.69;;;15.30;58.07
8039;BME280;4062;49.844;8.120;2023-11-21T06:23:02;98858.34;;;15.30;58.40
8039;BME280;4062;49.844;8.120;2023-11-21T06:25:05;98864.53;;;15.31;58.28
8039;BME280;4062;49.844;8.120;2023-11-21T06:27:06;98859.22;;;15.31;58.47
8039;BME280;4062;49.844;8.120;2023-11-21T06:29:07;98863.66;;;15.30;58.41
8039;BME280;4062;49.844;8.120;2023-11-21T06:31:09;98866.31;;;15.30;58.29
8039;BME280;4062;49.844;8.120;2023-11-21T06:33:11;98875.19;;;15.31;58.34
8039;BME280;4062;49.844;8.120;2023-11-21T06:35:13;98869.88;;;15.31;58.48
8039;BME280;4062;49.844;8.120;2023-11-21T06:37:15;98875.19;;;15.31;58.42
8039;BME280;4062;49.844;8.120;2023-11-21T06:39:16;98877.84;;;15.31;58.37
8039;BME280;4062;49.844;8.120;2023-11-21T06:41:18;98875.19;;;15.31;58.44
8039;BME280;4062;49.844;8.120;2023-11-21T06:43:19;98876.03;;;15.31;58.36
8039;BME280;4062;49.844;8.120;2023-11-21T06:45:22;98875.19;;;15.31;58.41
8039;BME280;4062;49.844;8.120;2023-11-21T06:47:24;98872.53;;;15.31;58.33
8039;BME280;4062;49.844;8.120;2023-11-21T06:49:30;98876.97;;;15.30;58.28
8039;BME280;4062;49.844;8.120;2023-11-21T06:51:32;98880.50;;;15.31;58.40
8039;BME280;4062;49.844;8.120;2023-11-21T06:53:33;98885.84;;;15.31;58.32
8039;BME280;4062;49.844;8.120;2023-11-21T06:55:35;98899.16;;;15.31;58.25
8039;BME280;4062;49.844;8.120;2023-11-21T06:57:37;98893.81;;;15.31;58.47
8039;BME280;4062;49.844;8.120;2023-11-21T06:59:40;98908.91;;;15.30;58.25
8039;BME280;4062;49.844;8.120;2023-11-21T07:01:41;98904.47;;;15.31;58.30
8039;BME280;4062;49.844;8.120;2023-11-21T07:03:44;98910.63;;;15.31;58.34
8039;BME280;4062;49.844;8.120;2023-11-21T07:05:46;98914.22;;;15.30;58.35
8039;BME280;4062;49.844;8.120;2023-11-21T07:07:48;98923.09;;;15.31;58.26
8039;BME280;4062;49.844;8.120;2023-11-21T07:09:49;98914.22;;;15.30;58.40
8039;BME280;4062;49.844;8.120;2023-11-21T07:11:51;98926.59;;;15.31;58.45
8039;BME280;4062;49.844;8.120;2023-11-21T07:13:52;98931.09;;;15.31;58.35
8039;BME280;4062;49.844;8.120;2023-11-21T07:15:54;98936.41;;;15.31;58.28
8039;BME280;4062;49.844;8.120;2023-11-21T07:17:55;98931.94;;;15.31;58.29
8039;BME280;4062;49.844;8.120;2023-11-21T07:19:56;98942.56;;;15.31;58.42
8039;BME280;4062;49.844;8.120;2023-11-21T07:21:58;98946.13;;;15.32;58.44
8039;BME280;4062;49.844;8.120;2023-11-21T07:24:03;98941.72;;;15.31;58.12
8039;BME280;4062;49.844;8.120;2023-11-21T07:26:04;98950.56;;;15.31;58.32
8039;BME280;4062;49.844;8.120;2023-11-21T07:28:10;98945.22;;;15.31;58.25
8039;BME280;4062;49.844;8.120;2023-11-21T07:30:13;98952.38;;;15.31;58.47
8039;BME280;4062;49.844;8.120;2023-11-21T07:32:15;98951.44;;;15.32;58.40
8039;BME280;4062;49.844;8.120;2023-11-21T07:34:17;98958.53;;;15.31;58.29
8039;BME280;4062;49.844;8.120;2023-11-21T07:36:19;98963.03;;;15.31;58.21
8039;BME280;4062;49.844;8.120;2023-11-21T07:38:21;98958.53;;;15.31;58.23
8039;BME280;4062;49.844;8.120;2023-11-21T07:40:25;98961.22;;;15.31;58.45
8039;BME280;4062;49.844;8.120;2023-11-21T07:42:26;98966.53;;;15.31;58.31
8039;BME280;4062;49.844;8.120;2023-11-21T07:44:28;98966.53;;;15.31;58.33
8039;BME280;4062;49.844;8.120;2023-11-21T07:46:30;98970.91;;;15.32;58.33
8039;BME280;4062;49.844;8.120;2023-11-21T07:48:32;98968.25;;;15.32;58.42
8039;BME280;4062;49.844;8.120;2023-11-21T07:50:34;98972.72;;;15.32;58.32
8039;BME280;4062;49.844;8.120;2023-11-21T07:52:35;98978.91;;;15.32;58.24
8039;BME280;4062;49.844;8.120;2023-11-21T07:54:37;98975.38;;;15.32;58.38
8039;BME280;4062;49.844;8.120;2023-11-21T07:56:39;98991.38;;;15.32;58.37
8039;BME280;4062;49.844;8.120;2023-11-21T07:58:41;98993.16;;;15.31;58.39
8039;BME280;4062;49.844;8.120;2023-11-21T08:00:42;98999.34;;;15.32;58.45
8039;BME280;4062;49.844;8.120;2023-11-21T08:02:44;99002.84;;;15.32;58.35
8039;BME280;4062;49.844;8.120;2023-11-21T08:04:47;99008.19;;;15.32;58.52
8039;BME280;4062;49.844;8.120;2023-11-21T08:06:50;99000.19;;;15.32;58.32
8039;BME280;4062;49.844;8.120;2023-11-21T08:08:52;99015.31;;;15.32;58.36
8039;BME280;4062;49.844;8.120;2023-11-21T08:10:53;99014.34;;;15.33;58.31
8039;BME280;4062;49.844;8.120;2023-11-21T08:12:59;99009.13;;;15.31;58.30
8039;BME280;4062;49.844;8.120;2023-11-21T08:15:01;99013.50;;;15.32;58.30
8039;BME280;4062;49.844;8.120;2023-11-21T08:17:05;99012.66;;;15.32;58.31
8039;BME280;4062;49.844;8.120;2023-11-21T08:19:06;99006.47;;;15.31;58.36
8039;BME280;4062;49.844;8.120;2023-11-21T08:21:07;99016.16;;;15.32;58.42
8039;BME280;4062;49.844;8.120;2023-11-21T08:23:09;99013.50;;;15.32;58.43
8039;BME280;4062;49.844;8.120;2023-11-21T08:25:10;99012.66;;;15.32;58.42
8039;BME280;4062;49.844;8.120;2023-11-21T08:27:12;99019.69;;;15.33;58.31
8039;BME280;4062;49.844;8.120;2023-11-21T08:29:18;99018.81;;;15.32;58.42
8039;BME280;4062;49.844;8.120;2023-11-21T08:31:25;99025.00;;;15.33;58.31
8039;BME280;4062;49.844;8.120;2023-11-21T08:33:27;99028.53;;;15.34;58.44
8039;BME280;4062;49.844;8.120;2023-11-21T08:35:29;99024.16;;;15.32;58.17
8039;BME280;4062;49.844;8.120;2023-11-21T08:37:30;99026.81;;;15.32;58.33
8039;BME280;4062;49.844;8.120;2023-11-21T08:39:32;99030.31;;;15.33;58.32
8039;BME280;4062;49.844;8.120;2023-11-21T08:41:33;99035.66;;;15.33;58.43
8039;BME280;4062;49.844;8.120;2023-11-21T08:43:35;99035.66;;;15.33;58.37
8039;BME280;4062;49.844;8.120;2023-11-21T08:45:40;99040.13;;;15.32;58.31
8039;BME280;4062;49.844;8.120;2023-11-21T08:47:41;99040.13;;;15.32;58.46
8039;BME280;4062;49.844;8.120;2023-11-21T08:49:45;99048.94;;;15.33;58.38
8039;BME280;4062;49.844;8.120;2023-11-21T08:51:46;99043.63;;;15.33;58.29
8039;BME280;4062;49.844;8.120;2023-11-21T08:53:47;99042.78;;;15.32;58.32
8039;BME280;4062;49.844;8.120;2023-11-21T08:55:49;99052.50;;;15.34;58.23
8039;BME280;4062;49.844;8.120;2023-11-21T08:57:51;99053.44;;;15.32;58.36
8039;BME280;4062;49.844;8.120;2023-11-21T08:59:53;99057.81;;;15.34;58.37
8039;BME280;4062;49.844;8.120;2023-11-21T09:01:56;99057.81;;;15.34;58.29
8039;BME280;4062;49.844;8.120;2023-11-21T09:03:58;99055.16;;;15.34;58.25
8039;BME280;4062;49.844;8.120;2023-11-21T09:05:59;99055.16;;;15.34;58.32
8039;BME280;4062;49.844;8.120;2023-11-21T09:08:01;99056.09;;;15.32;58.40
8039;BME280;4062;49.844;8.120;2023-11-21T09:10:03;99066.66;;;15.34;58.28
8039;BME280;4062;49.844;8.120;2023-11-21T09:12:06;99065.81;;;15.34;58.37
8039;BME280;4062;49.844;8.120;2023-11-21T09:14:08;99067.59;;;15.33;58.29
8039;BME280;4062;49.844;8.120;2023-11-21T09:16:11;99079.97;;;15.34;58.31
8039;BME280;4062;49.844;8.120;2023-11-21T09:18:16;99081.78;;;15.34;58.37
8039;BME280;4062;49.844;8.120;2023-11-21T09:20:17;99076.44;;;15.34;58.26
8039;BME280;4062;49.844;8.120;2023-11-21T09:22:19;99079.97;;;15.34;58.36
8039;BME280;4062;49.844;8.120;2023-11-21T09:24:22;99075.56;;;15.33;58.37
8039;BME280;4062;49.844;8.120;2023-11-21T09:26:23;99080.91;;;15.33;58.38
8039;BME280;4062;49.844;8.120;2023-11-21T09:28:24;99079.13;;;15.34;58.37
8039;BME280;4062;49.844;8.120;2023-11-21T09:30:25;99083.56;;;15.33;58.26
8039;BME280;4062;49.844;8.120;2023-11-21T09:32:27;99092.41;;;15.34;58.35
8039;BME280;4062;49.844;8.120;2023-11-21T09:34:29;99087.09;;;15.34;58.32
8039;BME280;4062;49.844;8.120;2023-11-21T09:36:31;99091.53;;;15.33;58.26
8039;BME280;4062;49.844;8.120;2023-11-21T09:38:33;99093.34;;;15.32;58.29
8039;BME280;4062;49.844;8.120;2023-11-21T09:40:34;99092.41;;;15.34;58.46
8039;BME280;4062;49.844;8.120;2023-11-21T09:45:05;99103.91;;;15.34;58.28
8039;BME280;4062;49.844;8.120;2023-11-21T09:47:07;99105.72;;;15.34;58.46
8039;BME280;4062;49.844;8.120;2023-11-21T09:49:12;99108.41;;;15.34;58.36
8039;BME280;4062;49.844;8.120;2023-11-21T09:51:14;99114.56;;;15.34;58.34
8039;BME280;4062;49.844;8.120;2023-11-21T09:53:21;99111.06;;;15.34;58.37
8039;BME280;4062;49.844;8.120;2023-11-21T09:55:27;99113.72;;;15.34;58.41
8039;BME280;4062;49.844;8.120;2023-11-21T09:57:33;99113.72;;;15.34;58.42
8039;BME280;4062;49.844;8.120;2023-11-21T09:59:35;99124.38;;;15.34;58.36
8039;BME280;4062;49.844;8.120;2023-11-21T10:01:39;99127.03;;;15.34;58.39
8039;BME280;4062;49.844;8.120;2023-11-21T10:03:41;99127.88;;;15.34;58.34
8039;BME280;4062;49.844;8.120;2023-11-21T10:05:44;99130.53;;;15.34;58.45
8039;BME280;4062;49.844;8.120;2023-11-21T10:07:46;99128.75;;;15.35;58.41
8039;BME280;4062;49.844;8.120;2023-11-21T10:09:48;99135.00;;;15.34;58.19
8039;BME280;4062;49.844;8.120;2023-11-21T10:11:52;99135.00;;;15.34;58.28
8039;BME280;4062;49.844;8.120;2023-11-21T10:13:54;99138.53;;;15.34;58.26
8039;BME280;4062;49.844;8.120;2023-11-21T10:15:58;99138.53;;;15.34;58.42
8039;BME280;4062;49.844;8.120;2023-11-21T10:18:03;99140.34;;;15.34;58.33
8039;BME280;4062;49.844;8.120;2023-11-21T10:20:05;99143.00;;;15.34;58.35
8039;BME280;4062;49.844;8.120;2023-11-21T10:22:15;99143.84;;;15.34;58.24
8039;BME280;4062;49.844;8.120;2023-11-21T10:24:18;99148.25;;;15.35;58.30
8039;BME280;4062;49.844;8.120;2023-11-21T10:26:19;99151.84;;;15.34;58.42
8039;BME280;4062;49.844;8.120;2023-11-21T10:28:22;99150.97;;;15.34;58.16
8039;BME280;4062;49.844;8.120;2023-11-21T10:30:24;99154.50;;;15.34;58.41
8039;BME280;4062;49.844;8.120;2023-11-21T10:32:29;99149.16;;;15.34;58.25
8039;BME280;4062;49.844;8.120;2023-11-21T10:34:34;99157.16;;;15.34;58.37
8039;BME280;4062;49.844;8.120;2023-11-21T10:36:35;99160.75;;;15.33;58.38
8039;BME280;4062;49.844;8.120;2023-11-21T10:38:42;99158.97;;;15.34;58.21
8039;BME280;4062;49.844;8.120;2023-11-21T10:40:45;99158.97;;;15.34;58.18
8039;BME280;4062;49.844;8.120;2023-11-21T10:42:47;99155.44;;;15.33;58.19
8039;BME280;4062;49.844;8.120;2023-11-21T10:44:49;99152.72;;;15.35;58.36
8039;BME280;4062;49.844;8.120;2023-11-21T10:46:51;99156.31;;;15.34;58.13
8039;BME280;4062;49.844;8.120;2023-11-21T10:48:54;99156.31;;;15.34;58.24
8039;BME280;4062;49.844;8.120;2023-11-21T10:50:58;99153.66;;;15.34;58.17
8039;BME280;4062;49.844;8.120;2023-11-21T10:53:02;99150.97;;;15.34;58.26
8039;BME280;4062;49.844;8.120;2023-11-21T10:55:19;99156.31;;;15.34;58.30
8039;BME280;4062;49.844;8.120;2023-11-21T10:57:23;99158.03;;;15.35;58.22
8039;BME280;4062;49.844;8.120;2023-11-21T10:59:29;99154.50;;;15.34;58.21
8039;BME280;4062;49.844;8.120;2023-11-21T11:01:32;99151.84;;;15.34;58.05
8039;BME280;4062;49.844;8.120;2023-11-21T11:03:34;99150.97;;;15.34;58.16
8039;BME280;4062;49.844;8.120;2023-11-21T11:05:37;99149.16;;;15.34;58.21
8039;BME280;4062;49.844;8.120;2023-11-21T11:07:40;99144.72;;;15.35;58.14